Historique des mesures à Cassis (13260), France
Quotidien Résumé Juillet 12, 2018 Unités:  Métrique    US   Métrique/US
« Précédent (Jour)
Suivant (Jour) »
Quotidien Hebdomadaire Mensuel Annuel Période au choix
  Maximum: Minimum: Moyenne:
Température: TemperatureC °C 21.2 °C 24.7 °C
Point de rosée: DewpointC °C 11.2 °C 12.5 °C
Humidité: Humidity % 33 % 44 %
Vitesse du vent: 0 km/h 0 km/h 8.9 km/h
Rafales: 0 km/h - -
Vent:- - West
Pression: PressurehPa hPa 1008.0 hPa -
Précipitations: 0.0 mm    
Historical Graphs
 
 
Mesures pour : Juillet 12, 2018
Heure Temperature Point de rosée Pression Vent Vitesse du vent Rafales Humidité Pluie (par heure) Conditions
TemperatureC °C DewpointC °C PressurehPa hPa Calm     Humidity % HourlyPrecipMM mm SoftwareType W/m2
00:10 23.9 °C 12.2 °C 1009.0 hPa NW 6.4 km/h 9.8 km/h 48 % 0.0 mm open2300-1.11 W/m2
01:10 22.8 °C 12.1 °C 1008.8 hPa NNW 7.6 km/h 7.6 km/h 51 % 0.0 mm open2300-1.11 W/m2
02:10 22.1 °C 11.7 °C 1008.5 hPa Calm   5.6 km/h 52 % 0.0 mm open2300-1.11 W/m2
03:10 21.5 °C 11.5 °C 1008.0 hPa WNW 3.4 km/h 5.1 km/h 53 % 0.0 mm open2300-1.11 W/m2
04:10 21.6 °C 11.6 °C 1008.2 hPa Calm     53 % 0.0 mm open2300-1.11 W/m2
05:10 21.3 °C 11.3 °C 1008.5 hPa Calm     53 % 0.0 mm open2300-1.11 W/m2
06:10 21.2 °C 11.2 °C 1009.0 hPa Calm   3.4 km/h 53 % 0.0 mm open2300-1.11 W/m2
07:10 21.4 °C 11.7 °C 1009.0 hPa Calm     54 % 0.0 mm open2300-1.11 W/m2
08:10 24.6 °C 13.8 °C 1009.0 hPa Calm     51 % 0.0 mm open2300-1.11 W/m2
09:10 24.3 °C 13.3 °C 1009.8 hPa ESE 8 km/h 13.2 km/h 50 % 0.0 mm open2300-1.11 W/m2
10:10 24.8 °C 14.6 °C 1010.2 hPa Calm   11.6 km/h 53 % 0.0 mm open2300-1.11 W/m2
11:10 28.6 °C 13.3 °C 1010.1 hPa WNW 30.7 km/h 30.7 km/h 39 % 0.0 mm open2300-1.11 W/m2
12:10 29.9 °C 13.2 °C 1010.4 hPa West 29.5 km/h 29.5 km/h 36 % 0.0 mm open2300-1.11 W/m2
13:10 30.8 °C 13.1 °C 1010.3 hPa WNW 19.6 km/h 19.6 km/h 34 % 0.0 mm open2300-1.11 W/m2
14:10 29.8 °C 12.6 °C 1010.3 hPa WNW 26.2 km/h 26.2 km/h 35 % 0.0 mm open2300-1.11 W/m2
15:10 30.4 °C 12.7 °C 1010.1 hPa WNW 23 km/h 23 km/h 34 % 0.0 mm open2300-1.11 W/m2
16:10 31.2 °C 12.9 °C 1010.0 hPa WNW 12.2 km/h 14.5 km/h 33 % 0.0 mm open2300-1.11 W/m2
17:10 30.6 °C 12.4 °C 1010.2 hPa NW 6.9 km/h 25.4 km/h 33 % 0.0 mm open2300-1.11 W/m2
18:10 28.6 °C 15.1 °C 1009.8 hPa SE 9.8 km/h 9.8 km/h 44 % 0.0 mm open2300-1.11 W/m2
19:10 27.9 °C 15.2 °C 1010.3 hPa SSE 4.7 km/h 9.8 km/h 46 % 0.0 mm open2300-1.11 W/m2
20:10 26.8 °C 15.2 °C 1010.4 hPa WNW 6.4 km/h 6.4 km/h 49 % 0.0 mm open2300-1.11 W/m2
21:10 25.8 °C 14.3 °C 1010.5 hPa West 10.3 km/h 10.9 km/h 49 % 0.0 mm open2300-1.11 W/m2
22:10 24.6 °C 14.2 °C 1011.1 hPa NNW 14.5 km/h 23.8 km/h 51 % 0.0 mm open2300-1.11 W/m2
23:10 24.2 °C 13.7 °C 1011.6 hPa Calm   4.7 km/h 52 % 0.0 mm open2300-1.11 W/m2
Observations météo à CASSIS
WU-History script by Weather Underground - 1 mb